TFM - Tactical Decision Aid
ID: Runway Winds: CIG/VIS Threshold:

KCLT - Charlotte/Douglas In, NC, US

Updated at: 1957 UTC 21 Sep 2021
Latest TAF at: 1742 UTC 21 Sep 2021

TAF Board

Time1952Z 21/20Z 21/21Z 21/22Z 21/23Z 22/00Z 22/01Z 22/02Z 22/03Z 22/04Z 22/05Z 22/06Z 22/07Z 22/08Z>>
Type OBS PRVL
  [TEMP]  
PRVL PRVL PRVL PRVL PRVL PRVL PRVL PRVL PRVL PRVL PRVL PRVL
VIS 4 5 5 5 5 5 5 4 4 4 4 4 4 4
CIG 7 8
  [8]  
8 8 8 8 8 4 4 4 4 4 4 4
Cover OVC OVC
  [OVC]  
OVC OVC OVC OVC OVC OVC OVC OVC OVC OVC OVC OVC
FltCat IFR IFR
  [IFR]  
IFR IFR IFR IFR IFR LIFR LIFR LIFR LIFR LIFR LIFR LIFR
WX RA BR -RA BR
  [--]  
-RA BR -RA BR -RA BR -RA BR -RA BR BR VCSH BR VCSH BR VCSH BR VCSH BR VCSH BR VCSH BR VCSH
WDir 60 70
[70]
70 70 70 70 70 120 120 120 120 120 120 160
WSpd 5 8
  [9]  
8 8 8 8 8 5 5 5 5 5 5 4
WGst -- --
  [17]  
-- -- -- -- -- -- -- -- -- -- -- --

TDA Impact Legend

  None Marginal Slight Moderate High
Visibility (sm) >5 2.9≤X≤5 0.9≤X<2.9 <0.9
Ceiling (100 ft) >30 9.9≤X≤30 4.9≤X<9.9 <4.9
Wind Speed (kt) <15 15≤X<25 25≤X<30 ≥30
Wind Gust (kt) <15 15≤X<25 25≤X<35 ≥35
Weather No Wx Reported VCTS -TS,-FZRA TS,FZRA +TS,+FZRA
TAF
KCLT 211742Z 2118/2224 07008KT 5SM -RA BR BKN008 OVC013
  TEMPO 2118/2121 07009G17KT
  FM220200 12005KT 4SM BR VCSH OVC004
  FM220800 16004KT 4SM BR VCSH OVC004
  FM221500 19007KT P6SM VCSH BKN015
  FM221900 21009KT 6SM SHRA BR BKN024
  PROB30 2219/2224 3SM TSRA BR OVC015CB


METAR
KCLT 211952Z 06005KT 4SM RA BR OVC007 23/21 A3010 RMK AO2 RAB1857E09B33 SLP185 T02280211 PNO
KCLT 211852Z 06008KT 5SM BR BKN007 OVC010 23/21 A3011 RMK AO2 RAE45 SLP190 P0000 T02280211
KCLT 211846Z 05008KT 5SM BR BKN007 OVC010 23/21 A3012 RMK AO2 RAE45 P0000
KCLT 211752Z 07007KT 5SM -RA BR BKN009 OVC013 22/21 A3014 RMK AO2 RAE00B40 SLP199 P0000 60004 T02220206 10228 20200 58008
KCLT 211737Z 07006G15KT 5SM BR BKN009 OVC013 22/21 A3015 RMK AO2 RAE00 P0000 T02220206
KCLT 211652Z 06008G17KT 5SM -RA BR BKN007 OVC017 22/21 A3015 RMK AO2 SLP203 P0003 T02220206
KCLT 211636Z 06009KT 3SM -RA BR BKN007 OVC013 22/21 A3016 RMK AO2 P0002 T02170206

Radar Display
Forecast Discussion